METAR - Iceland

Last updated 18.06.2018 - at. 09:37

SIGMET for the last six hours

BIRD SIGMET A01 VALID 180810/181200 BIRK- BIRD REYKJAVIK CTA SEV MTW FCST WI N6230 W00730 - N6230 W00600 - N6100 W00630 - N6130 W00810 - N6230 W00730 SFC/FL070 STNR NC

METAR from the last three hours

AerodromeTimeMessage
BIAR2018-06-18 09.00METAR BIAR 180900Z 32008KT 9999 -DZ FEW016 SCT023 BKN033 08/05 Q0990
BIAR2018-06-18 08.00METAR BIAR 180800Z 33010KT 9999 -DZ FEW014 SCT023 BKN033 08/06 Q0991
BIAR2018-06-18 07.00METAR BIAR 180700Z 34011KT 9999 -DZ BKN020 OVC033 08/06 Q0991
BIBD2018-06-18 09.00METAR BIBD 180900Z 02008KT 9999 BKN025 OVC035 08/03 Q0994
BIBD2018-06-18 08.15METAR BIBD 180815Z 02008KT 9999 OVC025 08/03 Q0994
BIEG2018-06-18 09.00METAR BIEG 180900Z 36017KT 9999 -DZ FEW006 BKN030 OVC040 07/06 Q0985
BIEG2018-06-18 08.00METAR BIEG 180800Z 36017KT 9999 VCSH SCT006 BKN020 OVC035 07/06 Q0986
BIEG2018-06-18 07.00METAR BIEG 180700Z 36016KT 9999 -DZ BKN004 OVC020 07/06 Q0986
BIGR2018-06-18 09.00METAR BIGR 180900Z 02014G26KT 4000 RADZ BKN004 OVC007 06/05 Q0992
BIGR2018-06-18 08.00METAR BIGR 180800Z 03012G25KT 9999 RA BKN005 OVC009 06/05 Q0992
BIHN2018-06-18 09.00METAR BIHN 180900Z 01011KT 9999 -DZ VCSH FEW025 BKN041 OVC052 10/05 Q0983
BIHN2018-06-18 08.00METAR BIHN 180800Z 34014G24KT 9999 VCSH FEW022 BKN041 OVC048 10/05 Q0983
BIHU2018-06-18 09.00METAR BIHU 180900Z 34011KT 5500 -DZ FG SCT002 OVC007 06/06 Q0990
BIHU2018-06-18 08.00METAR BIHU 180800Z 35011KT 9999 RA SCT003 BKN008 OVC012 06/06 Q0990
BIHU2018-06-18 07.00METAR BIHU 180700Z 35011KT 9999 RA SCT004 BKN009 OVC018 07/06 Q0991
BIIS2018-06-18 09.00METAR BIIS 180900Z 06013KT 9999 FEW012 SCT015 BKN020 06/02 Q0995
BIIS2018-06-18 08.00METAR BIIS 180800Z 04014KT 9999 FEW008 SCT015 BKN020 06/02 Q0995
BIIS2018-06-18 06.46METAR BIIS 180646Z 03013KT 9999 FEW007 SCT015 BKN020 06/03 Q0995
BIKF2018-06-18 09.30METAR BIKF 180930Z 35016KT 9999 FEW015 BKN200 09/05 Q0992
BIKF2018-06-18 09.00METAR BIKF 180900Z 36017KT 9999 FEW015 BKN160 09/06 Q0992
BIKF2018-06-18 08.30METAR BIKF 180830Z 36017KT 9999 FEW015 SCT120 BKN170 08/06 Q0991
BIKF2018-06-18 08.00METAR BIKF 180800Z 01015KT 9999 FEW014 SCT120 BKN170 08/05 Q0991
BIKF2018-06-18 07.30METAR BIKF 180730Z 36015KT 9999 FEW034 SCT120 BKN170 07/06 Q0991
BIKF2018-06-18 07.00METAR BIKF 180700Z 36016KT 9999 FEW034 SCT110 BKN150 07/05 Q0991
BIRK2018-06-18 09.00METAR BIRK 180900Z 35017KT 9999 FEW018 BKN023 BKN150 09/04 Q0990
BIRK2018-06-18 08.00METAR BIRK 180800Z 34011KT 9999 FEW013 BKN100 09/04 Q0990
BIRK2018-06-18 07.00METAR BIRK 180700Z 35014KT 9999 FEW025 BKN120 09/04 Q0990
BITN2018-06-18 09.00METAR BITN 180900Z 04013KT 9999 RA BKN004 OVC008 06/06 Q0989
BITN2018-06-18 08.00METAR BITN 180800Z 04013KT 9999 RA BKN005 OVC008 06/06 Q0990
BIVM2018-06-18 09.00METAR BIVM 180900Z 34014G24KT 9999 SCT025 09/07 Q0987
BIVM2018-06-18 08.00METAR BIVM 180800Z 34015G25KT 9999 FEW015 09/06 Q0987
BIVM2018-06-18 07.00METAR BIVM 180700Z 34016KT 9999 FEW015 09/06 Q0987
BIVO2018-06-18 09.00METAR BIVO 180900Z 03018KT 5000 +RADZ BKN006 OVC008 07/07 Q0987
BIVO2018-06-18 08.00METAR BIVO 180800Z 03017KT 9000 -RA BKN006 OVC008 07/07 Q0988
BIVO2018-06-18 07.00METAR BIVO 180700Z 03019KT 6000 RA OVC005 07/07 Q0988





Other related web sites


This website is built with Eplica CMS